sensor_id;sensor_type;location;lat;lon;timestamp;P1;durP1;ratioP1;P2;durP2;ratioP2
37449;SDS011;23309;52.582;13.406;2022-12-18T07:01:36;31.60;;;15.70;;
37449;SDS011;23309;52.582;13.406;2022-12-18T07:04:02;36.47;;;16.20;;
37449;SDS011;23309;52.582;13.406;2022-12-18T07:06:28;35.92;;;16.52;;
37449;SDS011;23309;52.582;13.406;2022-12-18T07:08:54;34.70;;;16.15;;
37449;SDS011;23309;52.582;13.406;2022-12-18T07:11:21;46.00;;;17.95;;
37449;SDS011;23309;52.582;13.406;2022-12-18T07:13:47;39.78;;;17.33;;
37449;SDS011;23309;52.582;13.406;2022-12-18T07:16:14;38.20;;;17.33;;
37449;SDS011;23309;52.582;13.406;2022-12-18T07:18:45;34.92;;;16.77;;
37449;SDS011;23309;52.582;13.406;2022-12-18T07:21:12;36.30;;;16.45;;
37449;SDS011;23309;52.582;13.406;2022-12-18T07:23:41;34.58;;;16.00;;
37449;SDS011;23309;52.582;13.406;2022-12-18T07:26:08;36.28;;;16.20;;
37449;SDS011;23309;52.582;13.406;2022-12-18T07:28:36;38.78;;;16.17;;
37449;SDS011;23309;52.582;13.406;2022-12-18T07:31:05;32.17;;;15.55;;
37449;SDS011;23309;52.582;13.406;2022-12-18T07:33:32;32.90;;;15.35;;
37449;SDS011;23309;52.582;13.406;2022-12-18T07:36:03;31.00;;;15.15;;
37449;SDS011;23309;52.582;13.406;2022-12-18T07:38:31;31.05;;;14.63;;
37449;SDS011;23309;52.582;13.406;2022-12-18T07:40:59;29.02;;;14.75;;
37449;SDS011;23309;52.582;13.406;2022-12-18T07:43:26;29.08;;;14.85;;
37449;SDS011;23309;52.582;13.406;2022-12-18T07:45:52;31.05;;;14.75;;
37449;SDS011;23309;52.582;13.406;2022-12-18T07:48:18;30.70;;;15.55;;
37449;SDS011;23309;52.582;13.406;2022-12-18T07:50:44;35.42;;;16.17;;
37449;SDS011;23309;52.582;13.406;2022-12-18T07:53:13;30.70;;;15.73;;
37449;SDS011;23309;52.582;13.406;2022-12-18T07:55:39;37.70;;;15.93;;
37449;SDS011;23309;52.582;13.406;2022-12-18T07:58:05;33.95;;;15.93;;
37449;SDS011;23309;52.582;13.406;2022-12-18T08:00:32;30.95;;;15.63;;
37449;SDS011;23309;52.582;13.406;2022-12-18T08:02:58;34.30;;;16.90;;
37449;SDS011;23309;52.582;13.406;2022-12-18T08:05:24;37.13;;;16.30;;
37449;SDS011;23309;52.582;13.406;2022-12-18T08:07:51;33.03;;;15.80;;
37449;SDS011;23309;52.582;13.406;2022-12-18T08:10:21;34.78;;;15.65;;
37449;SDS011;23309;52.582;13.406;2022-12-18T08:12:48;36.97;;;16.92;;
37449;SDS011;23309;52.582;13.406;2022-12-18T08:15:15;35.50;;;15.93;;
37449;SDS011;23309;52.582;13.406;2022-12-18T08:17:41;31.17;;;15.20;;
37449;SDS011;23309;52.582;13.406;2022-12-18T08:20:08;34.05;;;16.25;;
37449;SDS011;23309;52.582;13.406;2022-12-18T08:22:35;36.15;;;16.40;;
37449;SDS011;23309;52.582;13.406;2022-12-18T08:25:02;32.35;;;15.38;;
37449;SDS011;23309;52.582;13.406;2022-12-18T08:27:31;35.22;;;16.33;;
37449;SDS011;23309;52.582;13.406;2022-12-18T08:29:57;29.52;;;14.13;;
37449;SDS011;23309;52.582;13.406;2022-12-18T08:32:23;34.33;;;15.68;;
37449;SDS011;23309;52.582;13.406;2022-12-18T08:34:50;31.55;;;15.70;;
37449;SDS011;23309;52.582;13.406;2022-12-18T08:37:16;32.53;;;15.63;;
37449;SDS011;23309;52.582;13.406;2022-12-18T08:39:43;28.90;;;15.10;;
37449;SDS011;23309;52.582;13.406;2022-12-18T08:42:09;26.42;;;14.20;;
37449;SDS011;23309;52.582;13.406;2022-12-18T08:44:37;34.30;;;15.60;;
37449;SDS011;23309;52.582;13.406;2022-12-18T08:47:04;27.48;;;14.70;;
37449;SDS011;23309;52.582;13.406;2022-12-18T08:49:30;30.58;;;14.05;;
37449;SDS011;23309;52.582;13.406;2022-12-18T08:51:57;29.92;;;15.73;;
37449;SDS011;23309;52.582;13.406;2022-12-18T08:54:23;34.22;;;16.95;;
37449;SDS011;23309;52.582;13.406;2022-12-18T08:56:50;29.15;;;14.75;;
37449;SDS011;23309;52.582;13.406;2022-12-18T08:59:16;30.52;;;13.27;;
37449;SDS011;23309;52.582;13.406;2022-12-18T09:01:46;25.27;;;13.88;;
37449;SDS011;23309;52.582;13.406;2022-12-18T09:04:12;29.65;;;14.35;;
37449;SDS011;23309;52.582;13.406;2022-12-18T09:06:39;26.65;;;13.25;;
37449;SDS011;23309;52.582;13.406;2022-12-18T09:09:05;27.27;;;13.02;;
37449;SDS011;23309;52.582;13.406;2022-12-18T09:11:32;26.27;;;13.60;;
37449;SDS011;23309;52.582;13.406;2022-12-18T09:13:59;23.58;;;12.55;;
37449;SDS011;23309;52.582;13.406;2022-12-18T09:16:27;30.13;;;14.23;;
37449;SDS011;23309;52.582;13.406;2022-12-18T09:18:57;25.15;;;13.40;;
37449;SDS011;23309;52.582;13.406;2022-12-18T09:21:23;25.75;;;12.77;;
37449;SDS011;23309;52.582;13.406;2022-12-18T09:23:52;25.90;;;13.50;;
37449;SDS011;23309;52.582;13.406;2022-12-18T09:26:20;26.60;;;14.85;;
37449;SDS011;23309;52.582;13.406;2022-12-18T09:28:47;27.05;;;13.73;;
37449;SDS011;23309;52.582;13.406;2022-12-18T09:31:14;29.38;;;13.73;;
37449;SDS011;23309;52.582;13.406;2022-12-18T09:33:43;25.85;;;12.48;;
37449;SDS011;23309;52.582;13.406;2022-12-18T09:36:13;26.40;;;13.77;;
37449;SDS011;23309;52.582;13.406;2022-12-18T09:38:41;24.20;;;12.95;;
37449;SDS011;23309;52.582;13.406;2022-12-18T09:41:14;27.35;;;13.77;;
37449;SDS011;23309;52.582;13.406;2022-12-18T09:43:59;29.05;;;14.38;;
37449;SDS011;23309;52.582;13.406;2022-12-18T09:46:32;28.75;;;13.52;;
37449;SDS011;23309;52.582;13.406;2022-12-18T09:49:02;24.40;;;13.23;;
37449;SDS011;23309;52.582;13.406;2022-12-18T09:51:39;25.52;;;14.25;;
37449;SDS011;23309;52.582;13.406;2022-12-18T09:54:11;28.20;;;13.93;;
37449;SDS011;23309;52.582;13.406;2022-12-18T09:56:42;26.27;;;13.82;;
37449;SDS011;23309;52.582;13.406;2022-12-18T09:59:14;28.52;;;13.63;;
37449;SDS011;23309;52.582;13.406;2022-12-18T10:01:49;28.23;;;14.27;;
37449;SDS011;23309;52.582;13.406;2022-12-18T10:04:16;29.02;;;14.13;;
37449;SDS011;23309;52.582;13.406;2022-12-18T10:06:46;29.50;;;14.63;;
37449;SDS011;23309;52.582;13.406;2022-12-18T10:09:21;29.35;;;15.48;;
37449;SDS011;23309;52.582;13.406;2022-12-18T10:11:58;29.95;;;14.23;;
37449;SDS011;23309;52.582;13.406;2022-12-18T10:14:34;27.75;;;14.05;;
37449;SDS011;23309;52.582;13.406;2022-12-18T10:17:14;32.88;;;14.50;;
37449;SDS011;23309;52.582;13.406;2022-12-18T10:19:52;29.95;;;15.57;;
37449;SDS011;23309;52.582;13.406;2022-12-18T10:22:35;25.42;;;13.27;;
37449;SDS011;23309;52.582;13.406;2022-12-18T10:25:18;31.70;;;14.90;;
37449;SDS011;23309;52.582;13.406;2022-12-18T10:27:51;29.02;;;15.18;;
37449;SDS011;23309;52.582;13.406;2022-12-18T10:30:21;30.55;;;14.25;;
37449;SDS011;23309;52.582;13.406;2022-12-18T10:32:50;28.90;;;14.98;;
37449;SDS011;23309;52.582;13.406;2022-12-18T10:35:18;29.70;;;14.75;;
37449;SDS011;23309;52.582;13.406;2022-12-18T10:38:02;28.48;;;14.40;;
37449;SDS011;23309;52.582;13.406;2022-12-18T10:40:32;30.23;;;15.85;;
37449;SDS011;23309;52.582;13.406;2022-12-18T10:43:13;30.55;;;14.70;;
37449;SDS011;23309;52.582;13.406;2022-12-18T10:45:44;29.83;;;14.82;;
37449;SDS011;23309;52.582;13.406;2022-12-18T10:48:30;30.98;;;13.60;;
37449;SDS011;23309;52.582;13.406;2022-12-18T10:50:58;37.72;;;16.70;;
37449;SDS011;23309;52.582;13.406;2022-12-18T10:53:28;27.08;;;14.85;;
37449;SDS011;23309;52.582;13.406;2022-12-18T10:55:58;31.65;;;14.80;;
37449;SDS011;23309;52.582;13.406;2022-12-18T10:58:25;30.33;;;15.32;;
37449;SDS011;23309;52.582;13.406;2022-12-18T11:01:08;30.15;;;15.00;;
37449;SDS011;23309;52.582;13.406;2022-12-18T11:03:37;32.78;;;16.52;;
37449;SDS011;23309;52.582;13.406;2022-12-18T11:06:06;31.92;;;14.80;;
37449;SDS011;23309;52.582;13.406;2022-12-18T11:08:38;31.30;;;16.13;;
37449;SDS011;23309;52.582;13.406;2022-12-18T11:11:07;34.15;;;15.95;;
37449;SDS011;23309;52.582;13.406;2022-12-18T11:13:52;33.85;;;15.93;;
37449;SDS011;23309;52.582;13.406;2022-12-18T11:16:27;32.63;;;15.65;;
37449;SDS011;23309;52.582;13.406;2022-12-18T11:19:08;38.20;;;17.23;;
37449;SDS011;23309;52.582;13.406;2022-12-18T11:21:46;30.85;;;15.32;;
37449;SDS011;23309;52.582;13.406;2022-12-18T11:24:22;30.80;;;15.13;;
37449;SDS011;23309;52.582;13.406;2022-12-18T11:26:55;30.63;;;14.63;;
37449;SDS011;23309;52.582;13.406;2022-12-18T11:29:24;30.98;;;14.75;;
37449;SDS011;23309;52.582;13.406;2022-12-18T11:34:56;29.52;;;14.05;;
37449;SDS011;23309;52.582;13.406;2022-12-18T11:37:28;33.55;;;15.07;;
37449;SDS011;23309;52.582;13.406;2022-12-18T11:40:00;29.33;;;14.50;;
37449;SDS011;23309;52.582;13.406;2022-12-18T11:42:35;26.08;;;13.93;;
37449;SDS011;23309;52.582;13.406;2022-12-18T11:47:57;30.30;;;14.00;;
37449;SDS011;23309;52.582;13.406;2022-12-18T11:50:28;27.67;;;13.63;;
37449;SDS011;23309;52.582;13.406;2022-12-18T11:53:04;29.05;;;14.27;;
37449;SDS011;23309;52.582;13.406;2022-12-18T11:55:39;28.80;;;13.60;;
37449;SDS011;23309;52.582;13.406;2022-12-18T11:58:17;29.10;;;13.95;;
37449;SDS011;23309;52.582;13.406;2022-12-18T12:00:56;28.30;;;14.80;;
37449;SDS011;23309;52.582;13.406;2022-12-18T12:03:39;33.58;;;14.52;;
37449;SDS011;23309;52.582;13.406;2022-12-18T12:06:27;27.83;;;14.40;;
37449;SDS011;23309;52.582;13.406;2022-12-18T12:09:05;29.30;;;13.55;;
37449;SDS011;23309;52.582;13.406;2022-12-18T12:11:45;28.20;;;13.75;;
37449;SDS011;23309;52.582;13.406;2022-12-18T12:14:31;25.90;;;13.30;;
37449;SDS011;23309;52.582;13.406;2022-12-18T12:17:13;24.15;;;11.60;;
37449;SDS011;23309;52.582;13.406;2022-12-18T12:19:51;20.83;;;12.40;;
37449;SDS011;23309;52.582;13.406;2022-12-18T12:22:28;25.30;;;12.20;;
37449;SDS011;23309;52.582;13.406;2022-12-18T12:25:07;23.08;;;12.48;;
37449;SDS011;23309;52.582;13.406;2022-12-18T12:27:58;25.65;;;12.70;;
37449;SDS011;23309;52.582;13.406;2022-12-18T12:30:40;23.58;;;12.35;;
37449;SDS011;23309;52.582;13.406;2022-12-18T12:33:23;24.80;;;14.00;;
37449;SDS011;23309;52.582;13.406;2022-12-18T12:36:06;23.48;;;12.20;;
37449;SDS011;23309;52.582;13.406;2022-12-18T12:38:42;26.42;;;13.38;;
37449;SDS011;23309;52.582;13.406;2022-12-18T12:41:13;25.83;;;13.60;;
37449;SDS011;23309;52.582;13.406;2022-12-18T12:43:45;23.77;;;12.60;;
37449;SDS011;23309;52.582;13.406;2022-12-18T12:46:13;24.85;;;12.35;;
37449;SDS011;23309;52.582;13.406;2022-12-18T12:48:44;22.65;;;13.07;;
37449;SDS011;23309;52.582;13.406;2022-12-18T12:51:16;25.75;;;13.65;;
37449;SDS011;23309;52.582;13.406;2022-12-18T12:53:45;24.13;;;13.60;;
37449;SDS011;23309;52.582;13.406;2022-12-18T12:56:13;23.33;;;11.50;;
37449;SDS011;23309;52.582;13.406;2022-12-18T12:58:50;22.77;;;12.13;;
37449;SDS011;23309;52.582;13.406;2022-12-18T13:01:26;23.88;;;13.15;;
37449;SDS011;23309;52.582;13.406;2022-12-18T13:04:02;23.70;;;12.45;;
37449;SDS011;23309;52.582;13.406;2022-12-18T13:06:42;23.63;;;12.10;;
37449;SDS011;23309;52.582;13.406;2022-12-18T13:09:13;24.25;;;11.85;;
37449;SDS011;23309;52.582;13.406;2022-12-18T13:11:39;20.20;;;11.55;;
37449;SDS011;23309;52.582;13.406;2022-12-18T13:14:12;22.70;;;11.27;;
37449;SDS011;23309;52.582;13.406;2022-12-18T13:19:56;18.92;;;11.10;;
37449;SDS011;23309;52.582;13.406;2022-12-18T13:22:34;18.77;;;10.30;;
37449;SDS011;23309;52.582;13.406;2022-12-18T13:25:02;21.73;;;10.98;;
37449;SDS011;23309;52.582;13.406;2022-12-18T13:30:49;22.92;;;10.68;;
37449;SDS011;23309;52.582;13.406;2022-12-18T13:36:10;22.90;;;11.75;;
37449;SDS011;23309;52.582;13.406;2022-12-18T13:45:07;20.30;;;10.35;;
37449;SDS011;23309;52.582;13.406;2022-12-18T13:48:15;20.60;;;11.93;;
37449;SDS011;23309;52.582;13.406;2022-12-18T13:50:48;20.20;;;11.15;;
37449;SDS011;23309;52.582;13.406;2022-12-18T13:53:21;22.15;;;11.85;;
37449;SDS011;23309;52.582;13.406;2022-12-18T13:55:51;20.70;;;11.00;;
37449;SDS011;23309;52.582;13.406;2022-12-18T13:58:17;21.35;;;11.32;;
37449;SDS011;23309;52.582;13.406;2022-12-18T14:00:46;24.55;;;13.00;;
37449;SDS011;23309;52.582;13.406;2022-12-18T14:03:16;23.75;;;12.13;;
37449;SDS011;23309;52.582;13.406;2022-12-18T14:05:51;19.73;;;11.52;;
37449;SDS011;23309;52.582;13.406;2022-12-18T14:08:27;17.50;;;10.77;;
37449;SDS011;23309;52.582;13.406;2022-12-18T14:11:00;18.02;;;10.63;;
37449;SDS011;23309;52.582;13.406;2022-12-18T14:13:29;19.92;;;11.00;;
37449;SDS011;23309;52.582;13.406;2022-12-18T14:16:00;18.60;;;10.82;;
37449;SDS011;23309;52.582;13.406;2022-12-18T14:18:31;19.13;;;10.75;;
37449;SDS011;23309;52.582;13.406;2022-12-18T14:21:06;18.33;;;11.10;;
37449;SDS011;23309;52.582;13.406;2022-12-18T14:23:46;19.58;;;11.15;;
37449;SDS011;23309;52.582;13.406;2022-12-18T14:26:20;19.00;;;10.75;;
37449;SDS011;23309;52.582;13.406;2022-12-18T14:28:49;19.27;;;11.25;;
37449;SDS011;23309;52.582;13.406;2022-12-18T14:31:22;16.67;;;10.70;;
37449;SDS011;23309;52.582;13.406;2022-12-18T14:33:50;16.67;;;10.38;;
37449;SDS011;23309;52.582;13.406;2022-12-18T14:36:18;17.00;;;10.85;;
37449;SDS011;23309;52.582;13.406;2022-12-18T14:38:48;16.17;;;10.18;;
37449;SDS011;23309;52.582;13.406;2022-12-18T14:41:16;26.75;;;10.30;;
37449;SDS011;23309;52.582;13.406;2022-12-18T14:43:44;19.05;;;10.90;;
37449;SDS011;23309;52.582;13.406;2022-12-18T14:46:28;15.52;;;9.50;;
37449;SDS011;23309;52.582;13.406;2022-12-18T14:48:59;17.67;;;9.80;;
37449;SDS011;23309;52.582;13.406;2022-12-18T14:51:28;19.73;;;10.82;;
37449;SDS011;23309;52.582;13.406;2022-12-18T14:53:57;16.50;;;10.00;;
37449;SDS011;23309;52.582;13.406;2022-12-18T14:56:25;18.30;;;10.27;;
37449;SDS011;23309;52.582;13.406;2022-12-18T14:58:54;21.33;;;11.00;;
37449;SDS011;23309;52.582;13.406;2022-12-18T15:01:24;18.38;;;10.57;;
37449;SDS011;23309;52.582;13.406;2022-12-18T15:03:56;17.42;;;10.05;;
37449;SDS011;23309;52.582;13.406;2022-12-18T15:06:26;18.73;;;11.05;;
37449;SDS011;23309;52.582;13.406;2022-12-18T15:08:57;19.92;;;10.70;;
37449;SDS011;23309;52.582;13.406;2022-12-18T15:11:28;19.60;;;10.88;;
37449;SDS011;23309;52.582;13.406;2022-12-18T15:16:58;17.60;;;10.40;;
37449;SDS011;23309;52.582;13.406;2022-12-18T15:19:32;14.70;;;9.35;;
37449;SDS011;23309;52.582;13.406;2022-12-18T15:22:04;16.00;;;9.43;;
37449;SDS011;23309;52.582;13.406;2022-12-18T15:24:44;14.90;;;9.45;;
37449;SDS011;23309;52.582;13.406;2022-12-18T15:27:19;17.15;;;9.43;;
37449;SDS011;23309;52.582;13.406;2022-12-18T15:30:03;15.75;;;10.30;;
37449;SDS011;23309;52.582;13.406;2022-12-18T15:32:47;16.60;;;10.75;;
37449;SDS011;23309;52.582;13.406;2022-12-18T15:35:15;15.25;;;9.63;;
37449;SDS011;23309;52.582;13.406;2022-12-18T15:37:45;17.58;;;10.07;;
37449;SDS011;23309;52.582;13.406;2022-12-18T15:40:12;16.08;;;9.52;;
37449;SDS011;23309;52.582;13.406;2022-12-18T15:42:40;14.88;;;9.95;;
37449;SDS011;23309;52.582;13.406;2022-12-18T15:45:07;17.63;;;10.55;;
37449;SDS011;23309;52.582;13.406;2022-12-18T15:47:36;16.13;;;10.25;;
37449;SDS011;23309;52.582;13.406;2022-12-18T15:50:05;15.68;;;9.52;;
37449;SDS011;23309;52.582;13.406;2022-12-18T15:52:40;14.90;;;9.30;;
37449;SDS011;23309;52.582;13.406;2022-12-18T15:55:10;14.45;;;9.43;;
37449;SDS011;23309;52.582;13.406;2022-12-18T15:57:39;16.85;;;9.55;;
37449;SDS011;23309;52.582;13.406;2022-12-18T16:00:05;15.30;;;9.35;;
37449;SDS011;23309;52.582;13.406;2022-12-18T16:02:37;16.88;;;9.82;;
37449;SDS011;23309;52.582;13.406;2022-12-18T16:05:08;16.60;;;10.60;;
37449;SDS011;23309;52.582;13.406;2022-12-18T16:07:41;12.27;;;8.75;;
37449;SDS011;23309;52.582;13.406;2022-12-18T16:10:07;13.30;;;8.15;;
37449;SDS011;23309;52.582;13.406;2022-12-18T16:12:35;15.65;;;8.70;;
37449;SDS011;23309;52.582;13.406;2022-12-18T16:15:02;14.57;;;9.18;;
37449;SDS011;23309;52.582;13.406;2022-12-18T16:17:30;16.73;;;10.02;;
37449;SDS011;23309;52.582;13.406;2022-12-18T16:19:57;14.18;;;9.00;;
37449;SDS011;23309;52.582;13.406;2022-12-18T16:22:26;16.02;;;9.52;;
37449;SDS011;23309;52.582;13.406;2022-12-18T16:24:56;17.13;;;10.27;;
37449;SDS011;23309;52.582;13.406;2022-12-18T16:27:23;15.40;;;9.65;;
37449;SDS011;23309;52.582;13.406;2022-12-18T16:29:50;16.25;;;9.40;;
37449;SDS011;23309;52.582;13.406;2022-12-18T16:32:17;13.95;;;9.65;;
37449;SDS011;23309;52.582;13.406;2022-12-18T16:34:46;15.05;;;9.30;;
37449;SDS011;23309;52.582;13.406;2022-12-18T16:37:13;14.50;;;9.93;;
37449;SDS011;23309;52.582;13.406;2022-12-18T16:39:43;15.90;;;9.65;;
37449;SDS011;23309;52.582;13.406;2022-12-18T16:42:10;14.20;;;9.80;;
37449;SDS011;23309;52.582;13.406;2022-12-18T16:44:40;17.02;;;9.52;;
37449;SDS011;23309;52.582;13.406;2022-12-18T16:47:07;14.65;;;9.35;;
37449;SDS011;23309;52.582;13.406;2022-12-18T16:49:33;14.70;;;10.40;;
37449;SDS011;23309;52.582;13.406;2022-12-18T16:52:00;16.15;;;9.65;;
37449;SDS011;23309;52.582;13.406;2022-12-18T16:54:26;15.98;;;10.10;;
37449;SDS011;23309;52.582;13.406;2022-12-18T16:56:55;18.33;;;10.88;;
37449;SDS011;23309;52.582;13.406;2022-12-18T16:59:21;15.90;;;10.35;;
37449;SDS011;23309;52.582;13.406;2022-12-18T17:01:48;16.98;;;10.70;;
37449;SDS011;23309;52.582;13.406;2022-12-18T17:04:14;14.60;;;10.38;;
37449;SDS011;23309;52.582;13.406;2022-12-18T17:06:42;16.42;;;10.48;;
37449;SDS011;23309;52.582;13.406;2022-12-18T17:09:12;16.77;;;9.98;;
37449;SDS011;23309;52.582;13.406;2022-12-18T17:11:40;17.88;;;10.63;;
37449;SDS011;23309;52.582;13.406;2022-12-18T17:14:10;17.80;;;10.13;;
37449;SDS011;23309;52.582;13.406;2022-12-18T17:16:39;17.55;;;10.90;;
37449;SDS011;23309;52.582;13.406;2022-12-18T17:19:05;18.55;;;11.50;;
37449;SDS011;23309;52.582;13.406;2022-12-18T17:21:31;17.08;;;10.48;;
37449;SDS011;23309;52.582;13.406;2022-12-18T17:23:58;18.17;;;10.93;;
37449;SDS011;23309;52.582;13.406;2022-12-18T17:26:26;19.25;;;11.50;;
37449;SDS011;23309;52.582;13.406;2022-12-18T17:28:52;18.67;;;10.73;;
37449;SDS011;23309;52.582;13.406;2022-12-18T17:31:24;18.02;;;10.75;;
37449;SDS011;23309;52.582;13.406;2022-12-18T17:33:53;16.33;;;10.18;;
37449;SDS011;23309;52.582;13.406;2022-12-18T17:36:21;19.35;;;10.98;;
37449;SDS011;23309;52.582;13.406;2022-12-18T17:38:52;18.88;;;11.32;;
37449;SDS011;23309;52.582;13.406;2022-12-18T17:41:20;18.88;;;11.45;;
37449;SDS011;23309;52.582;13.406;2022-12-18T17:43:49;21.42;;;11.77;;
37449;SDS011;23309;52.582;13.406;2022-12-18T17:46:16;18.30;;;11.05;;
37449;SDS011;23309;52.582;13.406;2022-12-18T17:48:45;20.45;;;11.65;;
37449;SDS011;23309;52.582;13.406;2022-12-18T17:51:11;22.10;;;12.95;;
37449;SDS011;23309;52.582;13.406;2022-12-18T17:53:38;22.80;;;12.00;;
37449;SDS011;23309;52.582;13.406;2022-12-18T17:56:05;18.15;;;11.45;;
37449;SDS011;23309;52.582;13.406;2022-12-18T17:58:35;18.60;;;12.10;;
37449;SDS011;23309;52.582;13.406;2022-12-18T18:01:02;22.88;;;13.57;;
37449;SDS011;23309;52.582;13.406;2022-12-18T18:03:29;22.58;;;12.07;;
37449;SDS011;23309;52.582;13.406;2022-12-18T18:05:59;20.75;;;12.02;;
37449;SDS011;23309;52.582;13.406;2022-12-18T18:08:26;20.92;;;12.75;;
37449;SDS011;23309;52.582;13.406;2022-12-18T18:10:53;23.75;;;13.30;;
37449;SDS011;23309;52.582;13.406;2022-12-18T18:13:21;22.83;;;13.57;;
37449;SDS011;23309;52.582;13.406;2022-12-18T18:15:54;26.77;;;12.85;;
37449;SDS011;23309;52.582;13.406;2022-12-18T18:18:20;24.38;;;14.20;;
37449;SDS011;23309;52.582;13.406;2022-12-18T18:20:47;21.98;;;13.23;;
37449;SDS011;23309;52.582;13.406;2022-12-18T18:23:15;28.80;;;14.73;;
37449;SDS011;23309;52.582;13.406;2022-12-18T18:25:42;26.98;;;15.25;;
37449;SDS011;23309;52.582;13.406;2022-12-18T18:28:08;21.92;;;13.63;;
37449;SDS011;23309;52.582;13.406;2022-12-18T18:30:35;25.00;;;13.63;;
37449;SDS011;23309;52.582;13.406;2022-12-18T18:33:01;26.40;;;14.25;;
37449;SDS011;23309;52.582;13.406;2022-12-18T18:35:28;27.38;;;14.13;;
37449;SDS011;23309;52.582;13.406;2022-12-18T18:37:54;21.20;;;13.38;;
37449;SDS011;23309;52.582;13.406;2022-12-18T18:40:23;22.73;;;13.38;;
37449;SDS011;23309;52.582;13.406;2022-12-18T18:42:49;25.08;;;13.45;;
37449;SDS011;23309;52.582;13.406;2022-12-18T18:45:15;25.70;;;14.45;;
37449;SDS011;23309;52.582;13.406;2022-12-18T18:47:41;25.50;;;14.23;;
37449;SDS011;23309;52.582;13.406;2022-12-18T18:50:07;24.85;;;14.43;;
37449;SDS011;23309;52.582;13.406;2022-12-18T18:52:34;24.83;;;13.90;;
37449;SDS011;23309;52.582;13.406;2022-12-18T18:55:00;28.45;;;14.93;;
37449;SDS011;23309;52.582;13.406;2022-12-18T18:57:29;31.55;;;15.10;;
37449;SDS011;23309;52.582;13.406;2022-12-18T18:59:55;29.25;;;14.85;;
37449;SDS011;23309;52.582;13.406;2022-12-18T19:02:21;29.38;;;14.95;;
37449;SDS011;23309;52.582;13.406;2022-12-18T19:04:47;23.90;;;14.25;;
37449;SDS011;23309;52.582;13.406;2022-12-18T19:07:13;25.00;;;15.45;;
37449;SDS011;23309;52.582;13.406;2022-12-18T19:09:44;31.23;;;15.38;;
37449;SDS011;23309;52.582;13.406;2022-12-18T19:12:10;26.75;;;15.80;;
37449;SDS011;23309;52.582;13.406;2022-12-18T19:14:39;30.15;;;15.30;;
37449;SDS011;23309;52.582;13.406;2022-12-18T19:17:05;26.48;;;15.30;;
37449;SDS011;23309;52.582;13.406;2022-12-18T19:19:31;25.40;;;14.20;;
37449;SDS011;23309;52.582;13.406;2022-12-18T19:21:57;27.67;;;15.63;;
37449;SDS011;23309;52.582;13.406;2022-12-18T19:24:23;29.10;;;16.00;;
37449;SDS011;23309;52.582;13.406;2022-12-18T19:26:49;30.10;;;15.55;;
37449;SDS011;23309;52.582;13.406;2022-12-18T19:29:16;31.40;;;16.10;;
37449;SDS011;23309;52.582;13.406;2022-12-18T19:31:45;28.80;;;16.10;;
37449;SDS011;23309;52.582;13.406;2022-12-18T19:34:11;30.42;;;16.00;;
37449;SDS011;23309;52.582;13.406;2022-12-18T19:36:38;26.38;;;14.93;;
37449;SDS011;23309;52.582;13.406;2022-12-18T19:39:06;30.52;;;15.77;;
37449;SDS011;23309;52.582;13.406;2022-12-18T19:41:35;27.73;;;15.10;;
37449;SDS011;23309;52.582;13.406;2022-12-18T19:44:01;28.35;;;15.73;;
37449;SDS011;23309;52.582;13.406;2022-12-18T19:46:28;29.25;;;16.15;;
37449;SDS011;23309;52.582;13.406;2022-12-18T19:48:57;28.85;;;15.07;;
37449;SDS011;23309;52.582;13.406;2022-12-18T19:51:24;24.55;;;13.93;;
37449;SDS011;23309;52.582;13.406;2022-12-18T19:53:52;28.50;;;15.02;;
37449;SDS011;23309;52.582;13.406;2022-12-18T19:56:21;27.83;;;15.02;;
37449;SDS011;23309;52.582;13.406;2022-12-18T19:58:49;27.30;;;15.23;;
